Janicke — LK9012 — position and weather

sailwx.info

Track history (hours):
 
Tides and Currents Weather Stations Pressure Air Temp Water Temp Dewpoint Dewpoint Depression Visibility Wind Speed Wind Dir Waves Ship Positions

Janicke

Last reported at 2017-Oct-06 11:27 UTC. Time now 2017-Oct-17 04:23 UTC.
Position N 70°47' E 029°56'.
Warning: this ship's position is 10 days out of date.

Length 10 m.

Type: Fishing. MMSI: 257194440.

Date/timePositionNaut miles runAvg speedWind from/ knotsBaromVisibWave heightAir tempDewpointWater temp
2017-Oct-06 11:27N 70°47' E 029°56'2 5.0
2017-Oct-06 11:00N 70°49' E 029°60'0 0.3
2017-Oct-06 10:30N 70°49' E 029°59'0 0.7
2017-Oct-06 10:00N 70°48' E 029°59'0 0.4
2017-Oct-06 09:29N 70°48' E 029°58'12 5.0
2017-Oct-06 07:05N 70°37' E 029°42'  
2017-Oct-03 07:11N 70°38' E 029°45'2 8.7
2017-Oct-03 06:59N 70°40' E 029°47'14 0.7
2017-Oct-02 11:42N 70°50' E 029°19'314.5
2017-Oct-02 11:30N 70°52' E 029°13'  
2017-Sep-29 09:24N 70°51' E 029°06'0 0.1
2017-Sep-29 07:57N 70°52' E 029°06'1713.0
2017-Sep-29 06:38N 70°42' E 029°49'314.2
2017-Sep-29 06:24N 70°39' E 029°47'2 5.2
2017-Sep-29 06:00N 70°38' E 029°42'0 0.0
2017-Sep-29 05:29N 70°38' E 029°42'0 0.0
2017-Sep-29 05:00N 70°38' E 029°42'0 0.0
2017-Sep-29 04:26N 70°38' E 029°42'0 0.0
2017-Sep-29 04:00N 70°38' E 029°42'0 0.0
2017-Sep-29 03:28N 70°38' E 029°42'0 0.0
2017-Sep-29 02:57N 70°38' E 029°42'0 0.0
2017-Sep-29 02:29N 70°38' E 029°42'0 0.0
2017-Sep-29 02:00N 70°38' E 029°42'0 0.0
2017-Sep-29 01:30N 70°38' E 029°42'0 0.0
2017-Sep-29 01:00N 70°38' E 029°42'0 0.0
2017-Sep-29 00:29N 70°38' E 029°42'0 0.0
2017-Sep-28 23:59N 70°38' E 029°42'0 0.0
2017-Sep-28 23:29N 70°38' E 029°42'0 0.0
2017-Sep-28 23:00N 70°38' E 029°42'0 0.0
2017-Sep-28 22:28N 70°38' E 029°42'0 0.0
2017-Sep-28 21:59N 70°38' E 029°42'0 0.0
2017-Sep-28 21:30N 70°38' E 029°42'0 0.0
2017-Sep-28 20:59N 70°38' E 029°42'0 0.0
2017-Sep-28 20:29N 70°38' E 029°42'0 0.0
2017-Sep-28 20:00N 70°38' E 029°42'0 0.0
2017-Sep-28 19:30N 70°38' E 029°42'0 0.0
2017-Sep-28 19:00N 70°38' E 029°42'0 0.0
2017-Sep-28 18:29N 70°38' E 029°42'0 0.0
2017-Sep-28 17:58N 70°38' E 029°42'0 0.0
2017-Sep-28 17:30N 70°38' E 029°42'0 0.0
2017-Sep-28 16:59N 70°38' E 029°42'0 0.0
2017-Sep-28 16:30N 70°38' E 029°42'0 0.0
2017-Sep-28 15:59N 70°38' E 029°42'0 0.0
2017-Sep-28 15:28N 70°38' E 029°42'0 0.0
2017-Sep-28 14:36N 70°38' E 029°42'0 0.0
2017-Sep-28 14:30N 70°38' E 029°42'0 0.0
2017-Sep-28 13:58N 70°38' E 029°42'0 0.0
2017-Sep-28 13:11N 70°38' E 029°42'0 0.0
2017-Sep-28 12:33N 70°38' E 029°42'0 0.0
2017-Sep-28 12:28N 70°38' E 029°42'0 0.0
2017-Sep-28 11:29N 70°38' E 029°42'0 0.0
2017-Sep-28 10:55N 70°38' E 029°42'0 0.0
2017-Sep-28 10:29N 70°38' E 029°42'0 0.0
2017-Sep-28 09:59N 70°38' E 029°42'0 0.0
2017-Sep-28 09:27N 70°38' E 029°42'0 0.0
2017-Sep-28 08:59N 70°38' E 029°42'0 0.0
2017-Sep-28 08:30N 70°38' E 029°42'0 0.0
2017-Sep-28 08:00N 70°38' E 029°42'0 0.0
2017-Sep-28 07:26N 70°38' E 029°42'0 0.0
2017-Sep-28 07:00N 70°38' E 029°42'0 0.0
2017-Sep-28 06:28N 70°38' E 029°42'0 0.0
2017-Sep-28 05:57N 70°38' E 029°42'0 0.0
2017-Sep-28 05:24N 70°38' E 029°42'0 0.0
2017-Sep-28 04:49N 70°38' E 029°42'0 0.0
2017-Sep-28 04:24N 70°38' E 029°42'0 0.0
2017-Sep-28 03:59N 70°38' E 029°42'0 0.0
2017-Sep-28 03:29N 70°38' E 029°42'0 0.0
2017-Sep-28 03:00N 70°38' E 029°42'0 0.0
2017-Sep-28 02:30N 70°38' E 029°42'0 0.0
2017-Sep-28 02:00N 70°38' E 029°42'0 0.0
2017-Sep-28 01:29N 70°38' E 029°42'0 0.0
2017-Sep-28 00:59N 70°38' E 029°42'0 0.0
2017-Sep-28 00:30N 70°38' E 029°42'0 0.0
2017-Sep-28 00:00N 70°38' E 029°42'0 0.0
2017-Sep-27 23:29N 70°38' E 029°42'0 0.0
2017-Sep-27 22:59N 70°38' E 029°42'0 0.0
2017-Sep-27 22:30N 70°38' E 029°42'0 0.0
2017-Sep-27 21:55N 70°38' E 029°42'0 0.0
2017-Sep-27 21:29N 70°38' E 029°42'0 0.0
2017-Sep-27 20:59N 70°38' E 029°42'0 0.0
2017-Sep-27 20:26N 70°38' E 029°42'0 0.0
2017-Sep-27 19:53N 70°38' E 029°42'0 0.0
2017-Sep-27 19:30N 70°38' E 029°42'0 0.0
2017-Sep-27 19:00N 70°38' E 029°42'0 0.0
2017-Sep-27 18:25N 70°38' E 029°42'0 0.0
2017-Sep-27 17:58N 70°38' E 029°42'0 0.0
2017-Sep-27 17:27N 70°38' E 029°42'0 0.0
2017-Sep-27 16:57N 70°38' E 029°42'0 0.0
2017-Sep-27 16:29N 70°38' E 029°42'0 0.0
2017-Sep-27 12:18N 70°38' E 029°42'0 0.0
2017-Sep-27 10:35N 70°38' E 029°42'0 0.0
2017-Sep-27 10:24N 70°38' E 029°42'0 0.0
2017-Sep-27 09:48N 70°38' E 029°42'0 0.0
2017-Sep-27 09:25N 70°38' E 029°42'0 0.0
2017-Sep-27 09:00N 70°38' E 029°42'0 0.0
2017-Sep-27 08:30N 70°38' E 029°42'0 0.0
2017-Sep-27 08:00N 70°38' E 029°42'0 0.0
2017-Sep-27 07:28N 70°38' E 029°42'0 0.0
2017-Sep-27 06:59N 70°38' E 029°42'0 0.0
2017-Sep-27 06:30N 70°38' E 029°42'0 0.0
2017-Sep-27 06:00N 70°38' E 029°42'0 0.0
2017-Sep-27 05:30N 70°38' E 029°42'0 0.0
2017-Sep-27 04:58N 70°38' E 029°42'0 0.0
2017-Sep-27 04:30N 70°38' E 029°42'0 0.0
2017-Sep-27 04:00N 70°38' E 029°42'0 0.0
2017-Sep-27 03:29N 70°38' E 029°42'0 0.0
2017-Sep-27 02:59N 70°38' E 029°42'0 0.0
2017-Sep-27 02:29N 70°38' E 029°42'0 0.0
2017-Sep-27 01:59N 70°38' E 029°42'0 0.0
2017-Sep-27 01:30N 70°38' E 029°42'0 0.0
2017-Sep-27 01:00N 70°38' E 029°42'0 0.0
2017-Sep-27 00:30N 70°38' E 029°42'0 0.0
2017-Sep-26 23:58N 70°38' E 029°42'0 0.0
2017-Sep-26 23:30N 70°38' E 029°42'0 0.0
2017-Sep-26 22:58N 70°38' E 029°42'0 0.0
2017-Sep-26 22:30N 70°38' E 029°42'0 0.0
2017-Sep-26 21:59N 70°38' E 029°42'0 0.0
2017-Sep-26 21:30N 70°38' E 029°42'0 0.0
2017-Sep-26 20:59N 70°38' E 029°42'0 0.0
2017-Sep-26 20:30N 70°38' E 029°42'0 0.0
2017-Sep-26 20:00N 70°38' E 029°42'0 0.0
2017-Sep-26 19:29N 70°38' E 029°42'0 0.0
2017-Sep-26 18:58N 70°38' E 029°42'0 0.0
2017-Sep-26 18:30N 70°38' E 029°42'0 0.0
2017-Sep-26 18:00N 70°38' E 029°42'0 0.0
2017-Sep-26 17:30N 70°38' E 029°42'0 0.0
2017-Sep-26 16:59N 70°38' E 029°42'0 0.0
2017-Sep-26 16:29N 70°38' E 029°42'0 0.0
2017-Sep-26 15:53N 70°38' E 029°42'  
Track history (hours):
 
Tides and Currents Weather Stations Pressure Air Temp Water Temp Dewpoint Dewpoint Depression Visibility Wind Speed Wind Dir Waves Ship Positions

Janicke

Last reported at 2017-Oct-06 11:27 UTC. Time now 2017-Oct-17 04:23 UTC.
Position N 70°47' E 029°56'.
Warning: this ship's position is 10 days out of date.

Length 10 m.

Type: Fishing. MMSI: 257194440.

Date/timePositionNaut miles runAvg speedWind from/ knotsBaromVisibWave heightAir tempDewpointWater temp
2017-Oct-06 11:27N 70°47' E 029°56'2 5.0
2017-Oct-06 11:00N 70°49' E 029°60'0 0.3
2017-Oct-06 10:30N 70°49' E 029°59'0 0.7
2017-Oct-06 10:00N 70°48' E 029°59'0 0.4
2017-Oct-06 09:29N 70°48' E 029°58'12 5.0
2017-Oct-06 07:05N 70°37' E 029°42'  
2017-Oct-03 07:11N 70°38' E 029°45'2 8.7
2017-Oct-03 06:59N 70°40' E 029°47'14 0.7
2017-Oct-02 11:42N 70°50' E 029°19'314.5
2017-Oct-02 11:30N 70°52' E 029°13'  
2017-Sep-29 09:24N 70°51' E 029°06'0 0.1
2017-Sep-29 07:57N 70°52' E 029°06'1713.0
2017-Sep-29 06:38N 70°42' E 029°49'314.2
2017-Sep-29 06:24N 70°39' E 029°47'2 5.2
2017-Sep-29 06:00N 70°38' E 029°42'0 0.0
2017-Sep-29 05:29N 70°38' E 029°42'0 0.0
2017-Sep-29 05:00N 70°38' E 029°42'0 0.0
2017-Sep-29 04:26N 70°38' E 029°42'0 0.0
2017-Sep-29 04:00N 70°38' E 029°42'0 0.0
2017-Sep-29 03:28N 70°38' E 029°42'0 0.0
2017-Sep-29 02:57N 70°38' E 029°42'0 0.0
2017-Sep-29 02:29N 70°38' E 029°42'0 0.0
2017-Sep-29 02:00N 70°38' E 029°42'0 0.0
2017-Sep-29 01:30N 70°38' E 029°42'0 0.0
2017-Sep-29 01:00N 70°38' E 029°42'0 0.0
2017-Sep-29 00:29N 70°38' E 029°42'0 0.0
2017-Sep-28 23:59N 70°38' E 029°42'0 0.0
2017-Sep-28 23:29N 70°38' E 029°42'0 0.0
2017-Sep-28 23:00N 70°38' E 029°42'0 0.0
2017-Sep-28 22:28N 70°38' E 029°42'0 0.0
2017-Sep-28 21:59N 70°38' E 029°42'0 0.0
2017-Sep-28 21:30N 70°38' E 029°42'0 0.0
2017-Sep-28 20:59N 70°38' E 029°42'0 0.0
2017-Sep-28 20:29N 70°38' E 029°42'0 0.0
2017-Sep-28 20:00N 70°38' E 029°42'0 0.0
2017-Sep-28 19:30N 70°38' E 029°42'0 0.0
2017-Sep-28 19:00N 70°38' E 029°42'0 0.0
2017-Sep-28 18:29N 70°38' E 029°42'0 0.0
2017-Sep-28 17:58N 70°38' E 029°42'0 0.0
2017-Sep-28 17:30N 70°38' E 029°42'0 0.0
2017-Sep-28 16:59N 70°38' E 029°42'0 0.0
2017-Sep-28 16:30N 70°38' E 029°42'0 0.0
2017-Sep-28 15:59N 70°38' E 029°42'0 0.0
2017-Sep-28 15:28N 70°38' E 029°42'0 0.0
2017-Sep-28 14:36N 70°38' E 029°42'0 0.0
2017-Sep-28 14:30N 70°38' E 029°42'0 0.0
2017-Sep-28 13:58N 70°38' E 029°42'0 0.0
2017-Sep-28 13:11N 70°38' E 029°42'0 0.0
2017-Sep-28 12:33N 70°38' E 029°42'0 0.0
2017-Sep-28 12:28N 70°38' E 029°42'0 0.0
2017-Sep-28 11:29N 70°38' E 029°42'0 0.0
2017-Sep-28 10:55N 70°38' E 029°42'0 0.0
2017-Sep-28 10:29N 70°38' E 029°42'0 0.0
2017-Sep-28 09:59N 70°38' E 029°42'0 0.0
2017-Sep-28 09:27N 70°38' E 029°42'0 0.0
2017-Sep-28 08:59N 70°38' E 029°42'0 0.0
2017-Sep-28 08:30N 70°38' E 029°42'0 0.0
2017-Sep-28 08:00N 70°38' E 029°42'0 0.0
2017-Sep-28 07:26N 70°38' E 029°42'0 0.0
2017-Sep-28 07:00N 70°38' E 029°42'0 0.0
2017-Sep-28 06:28N 70°38' E 029°42'0 0.0
2017-Sep-28 05:57N 70°38' E 029°42'0 0.0
2017-Sep-28 05:24N 70°38' E 029°42'0 0.0
2017-Sep-28 04:49N 70°38' E 029°42'0 0.0
2017-Sep-28 04:24N 70°38' E 029°42'0 0.0
2017-Sep-28 03:59N 70°38' E 029°42'0 0.0
2017-Sep-28 03:29N 70°38' E 029°42'0 0.0
2017-Sep-28 03:00N 70°38' E 029°42'0 0.0
2017-Sep-28 02:30N 70°38' E 029°42'0 0.0
2017-Sep-28 02:00N 70°38' E 029°42'0 0.0
2017-Sep-28 01:29N 70°38' E 029°42'0 0.0
2017-Sep-28 00:59N 70°38' E 029°42'0 0.0
2017-Sep-28 00:30N 70°38' E 029°42'0 0.0
2017-Sep-28 00:00N 70°38' E 029°42'0 0.0
2017-Sep-27 23:29N 70°38' E 029°42'0 0.0
2017-Sep-27 22:59N 70°38' E 029°42'0 0.0
2017-Sep-27 22:30N 70°38' E 029°42'0 0.0
2017-Sep-27 21:55N 70°38' E 029°42'0 0.0
2017-Sep-27 21:29N 70°38' E 029°42'0 0.0
2017-Sep-27 20:59N 70°38' E 029°42'0 0.0
2017-Sep-27 20:26N 70°38' E 029°42'0 0.0
2017-Sep-27 19:53N 70°38' E 029°42'0 0.0
2017-Sep-27 19:30N 70°38' E 029°42'0 0.0
2017-Sep-27 19:00N 70°38' E 029°42'0 0.0
2017-Sep-27 18:25N 70°38' E 029°42'0 0.0
2017-Sep-27 17:58N 70°38' E 029°42'0 0.0
2017-Sep-27 17:27N 70°38' E 029°42'0 0.0
2017-Sep-27 16:57N 70°38' E 029°42'0 0.0
2017-Sep-27 16:29N 70°38' E 029°42'0 0.0
2017-Sep-27 12:18N 70°38' E 029°42'0 0.0
2017-Sep-27 10:35N 70°38' E 029°42'0 0.0
2017-Sep-27 10:24N 70°38' E 029°42'0 0.0
2017-Sep-27 09:48N 70°38' E 029°42'0 0.0
2017-Sep-27 09:25N 70°38' E 029°42'0 0.0
2017-Sep-27 09:00N 70°38' E 029°42'0 0.0
2017-Sep-27 08:30N 70°38' E 029°42'0 0.0
2017-Sep-27 08:00N 70°38' E 029°42'0 0.0
2017-Sep-27 07:28N 70°38' E 029°42'0 0.0
2017-Sep-27 06:59N 70°38' E 029°42'0 0.0
2017-Sep-27 06:30N 70°38' E 029°42'0 0.0
2017-Sep-27 06:00N 70°38' E 029°42'0 0.0
2017-Sep-27 05:30N 70°38' E 029°42'0 0.0
2017-Sep-27 04:58N 70°38' E 029°42'0 0.0
2017-Sep-27 04:30N 70°38' E 029°42'0 0.0
2017-Sep-27 04:00N 70°38' E 029°42'0 0.0
2017-Sep-27 03:29N 70°38' E 029°42'0 0.0
2017-Sep-27 02:59N 70°38' E 029°42'0 0.0
2017-Sep-27 02:29N 70°38' E 029°42'0 0.0
2017-Sep-27 01:59N 70°38' E 029°42'0 0.0
2017-Sep-27 01:30N 70°38' E 029°42'0 0.0
2017-Sep-27 01:00N 70°38' E 029°42'0 0.0
2017-Sep-27 00:30N 70°38' E 029°42'0 0.0
2017-Sep-26 23:58N 70°38' E 029°42'0 0.0
2017-Sep-26 23:30N 70°38' E 029°42'0 0.0
2017-Sep-26 22:58N 70°38' E 029°42'0 0.0
2017-Sep-26 22:30N 70°38' E 029°42'0 0.0
2017-Sep-26 21:59N 70°38' E 029°42'0 0.0
2017-Sep-26 21:30N 70°38' E 029°42'0 0.0
2017-Sep-26 20:59N 70°38' E 029°42'0 0.0
2017-Sep-26 20:30N 70°38' E 029°42'0 0.0
2017-Sep-26 20:00N 70°38' E 029°42'0 0.0
2017-Sep-26 19:29N 70°38' E 029°42'0 0.0
2017-Sep-26 18:58N 70°38' E 029°42'0 0.0
2017-Sep-26 18:30N 70°38' E 029°42'0 0.0
2017-Sep-26 18:00N 70°38' E 029°42'0 0.0
2017-Sep-26 17:30N 70°38' E 029°42'0 0.0
2017-Sep-26 16:59N 70°38' E 029°42'0 0.0
2017-Sep-26 16:29N 70°38' E 029°42'0 0.0
2017-Sep-26 15:53N 70°38' E 029°42'  

Dump ship's entire track history